sensor_id;sensor_type;location;lat;lon;timestamp;P1;durP1;ratioP1;P2;durP2;ratioP2
57697;SDS011;43531;52.152;6.366;2022-12-16T00:00:02;61.33;;;36.22;;
57697;SDS011;43531;52.152;6.366;2022-12-16T00:00:35;56.03;;;34.85;;
57697;SDS011;43531;52.152;6.366;2022-12-16T00:01:13;52.80;;;36.35;;
57697;SDS011;43531;52.152;6.366;2022-12-16T00:01:46;56.60;;;36.33;;
57697;SDS011;43531;52.152;6.366;2022-12-16T00:02:17;59.35;;;38.22;;
57697;SDS011;43531;52.152;6.366;2022-12-16T00:02:49;54.75;;;35.90;;
57697;SDS011;43531;52.152;6.366;2022-12-16T00:03:22;53.50;;;35.42;;
57697;SDS011;43531;52.152;6.366;2022-12-16T00:03:54;54.50;;;36.67;;
57697;SDS011;43531;52.152;6.366;2022-12-16T00:04:26;51.10;;;36.03;;
57697;SDS011;43531;52.152;6.366;2022-12-16T00:04:58;53.33;;;35.78;;
57697;SDS011;43531;52.152;6.366;2022-12-16T00:05:30;55.58;;;35.13;;
57697;SDS011;43531;52.152;6.366;2022-12-16T00:06:01;56.33;;;36.15;;
57697;SDS011;43531;52.152;6.366;2022-12-16T00:06:34;51.32;;;35.78;;
57697;SDS011;43531;52.152;6.366;2022-12-16T00:07:06;57.45;;;36.20;;
57697;SDS011;43531;52.152;6.366;2022-12-16T00:07:37;52.88;;;35.70;;
57697;SDS011;43531;52.152;6.366;2022-12-16T00:08:09;50.83;;;33.92;;
57697;SDS011;43531;52.152;6.366;2022-12-16T00:08:41;54.50;;;37.00;;
57697;SDS011;43531;52.152;6.366;2022-12-16T00:09:13;54.28;;;35.97;;
57697;SDS011;43531;52.152;6.366;2022-12-16T00:09:45;51.85;;;33.83;;
57697;SDS011;43531;52.152;6.366;2022-12-16T00:10:16;53.97;;;34.47;;
57697;SDS011;43531;52.152;6.366;2022-12-16T00:10:48;55.22;;;34.45;;
57697;SDS011;43531;52.152;6.366;2022-12-16T00:11:26;55.58;;;36.42;;
57697;SDS011;43531;52.152;6.366;2022-12-16T00:11:58;50.95;;;35.83;;
57697;SDS011;43531;52.152;6.366;2022-12-16T00:12:30;51.88;;;33.08;;
57697;SDS011;43531;52.152;6.366;2022-12-16T00:13:02;57.44;;;36.52;;
57697;SDS011;43531;52.152;6.366;2022-12-16T00:13:43;52.30;;;34.42;;
57697;SDS011;43531;52.152;6.366;2022-12-16T00:14:15;57.84;;;37.94;;
57697;SDS011;43531;52.152;6.366;2022-12-16T00:14:46;56.97;;;36.55;;
57697;SDS011;43531;52.152;6.366;2022-12-16T00:15:18;51.92;;;35.45;;
57697;SDS011;43531;52.152;6.366;2022-12-16T00:15:50;49.03;;;33.95;;
57697;SDS011;43531;52.152;6.366;2022-12-16T00:16:21;51.34;;;35.36;;
57697;SDS011;43531;52.152;6.366;2022-12-16T00:16:53;59.05;;;36.45;;
57697;SDS011;43531;52.152;6.366;2022-12-16T00:17:24;52.10;;;34.03;;
57697;SDS011;43531;52.152;6.366;2022-12-16T00:17:56;55.13;;;36.47;;
57697;SDS011;43531;52.152;6.366;2022-12-16T00:18:27;54.74;;;34.76;;
57697;SDS011;43531;52.152;6.366;2022-12-16T00:18:59;56.17;;;35.15;;
57697;SDS011;43531;52.152;6.366;2022-12-16T00:19:31;53.22;;;35.00;;
57697;SDS011;43531;52.152;6.366;2022-12-16T00:20:03;51.95;;;35.40;;
57697;SDS011;43531;52.152;6.366;2022-12-16T00:20:35;55.03;;;34.00;;
57697;SDS011;43531;52.152;6.366;2022-12-16T00:21:07;55.17;;;35.53;;
57697;SDS011;43531;52.152;6.366;2022-12-16T00:21:39;52.28;;;35.03;;
57697;SDS011;43531;52.152;6.366;2022-12-16T00:22:13;55.95;;;35.55;;
57697;SDS011;43531;52.152;6.366;2022-12-16T00:22:44;53.55;;;34.42;;
57697;SDS011;43531;52.152;6.366;2022-12-16T00:23:16;51.15;;;34.95;;
57697;SDS011;43531;52.152;6.366;2022-12-16T00:23:47;54.53;;;35.55;;
57697;SDS011;43531;52.152;6.366;2022-12-16T00:24:19;49.58;;;34.75;;
57697;SDS011;43531;52.152;6.366;2022-12-16T00:24:52;54.65;;;34.53;;
57697;SDS011;43531;52.152;6.366;2022-12-16T00:25:23;53.22;;;34.15;;
57697;SDS011;43531;52.152;6.366;2022-12-16T00:25:55;53.53;;;33.00;;
57697;SDS011;43531;52.152;6.366;2022-12-16T00:26:26;58.30;;;34.08;;
57697;SDS011;43531;52.152;6.366;2022-12-16T00:27:01;52.45;;;35.03;;
57697;SDS011;43531;52.152;6.366;2022-12-16T00:27:32;52.65;;;35.60;;
57697;SDS011;43531;52.152;6.366;2022-12-16T00:28:04;57.47;;;35.75;;
57697;SDS011;43531;52.152;6.366;2022-12-16T00:28:36;52.75;;;34.72;;
57697;SDS011;43531;52.152;6.366;2022-12-16T00:29:08;56.90;;;35.80;;
57697;SDS011;43531;52.152;6.366;2022-12-16T00:29:41;56.95;;;36.97;;
57697;SDS011;43531;52.152;6.366;2022-12-16T00:30:13;50.67;;;33.78;;
57697;SDS011;43531;52.152;6.366;2022-12-16T00:30:46;54.97;;;37.00;;
57697;SDS011;43531;52.152;6.366;2022-12-16T00:31:19;50.83;;;34.85;;
57697;SDS011;43531;52.152;6.366;2022-12-16T00:31:50;54.22;;;33.75;;
57697;SDS011;43531;52.152;6.366;2022-12-16T00:32:22;49.50;;;32.95;;
57697;SDS011;43531;52.152;6.366;2022-12-16T00:32:54;53.92;;;33.60;;
57697;SDS011;43531;52.152;6.366;2022-12-16T00:33:26;50.95;;;34.25;;
57697;SDS011;43531;52.152;6.366;2022-12-16T00:33:58;53.95;;;35.28;;
57697;SDS011;43531;52.152;6.366;2022-12-16T00:34:29;51.42;;;33.10;;
57697;SDS011;43531;52.152;6.366;2022-12-16T00:35:01;50.13;;;34.53;;
57697;SDS011;43531;52.152;6.366;2022-12-16T00:35:33;57.33;;;34.83;;
57697;SDS011;43531;52.152;6.366;2022-12-16T00:36:05;52.13;;;33.80;;
57697;SDS011;43531;52.152;6.366;2022-12-16T00:36:38;50.53;;;33.60;;
57697;SDS011;43531;52.152;6.366;2022-12-16T00:37:10;55.42;;;35.90;;
57697;SDS011;43531;52.152;6.366;2022-12-16T00:37:45;55.08;;;34.45;;
57697;SDS011;43531;52.152;6.366;2022-12-16T00:38:17;50.20;;;34.67;;
57697;SDS011;43531;52.152;6.366;2022-12-16T00:38:50;49.92;;;33.75;;
57697;SDS011;43531;52.152;6.366;2022-12-16T00:39:23;51.50;;;34.67;;
57697;SDS011;43531;52.152;6.366;2022-12-16T00:39:55;50.60;;;33.90;;
57697;SDS011;43531;52.152;6.366;2022-12-16T00:40:26;48.50;;;32.90;;
57697;SDS011;43531;52.152;6.366;2022-12-16T00:40:58;51.97;;;34.58;;
57697;SDS011;43531;52.152;6.366;2022-12-16T00:41:30;52.97;;;36.05;;
57697;SDS011;43531;52.152;6.366;2022-12-16T00:42:01;61.85;;;35.00;;
57697;SDS011;43531;52.152;6.366;2022-12-16T00:42:33;54.38;;;35.13;;
57697;SDS011;43531;52.152;6.366;2022-12-16T00:43:04;53.78;;;35.85;;
57697;SDS011;43531;52.152;6.366;2022-12-16T00:43:36;56.17;;;35.15;;
57697;SDS011;43531;52.152;6.366;2022-12-16T00:44:08;55.67;;;34.97;;
57697;SDS011;43531;52.152;6.366;2022-12-16T00:44:39;50.90;;;33.90;;
57697;SDS011;43531;52.152;6.366;2022-12-16T00:45:12;51.03;;;33.08;;
57697;SDS011;43531;52.152;6.366;2022-12-16T00:45:44;48.60;;;32.70;;
57697;SDS011;43531;52.152;6.366;2022-12-16T00:46:16;57.83;;;36.83;;
57697;SDS011;43531;52.152;6.366;2022-12-16T00:46:48;51.22;;;33.88;;
57697;SDS011;43531;52.152;6.366;2022-12-16T00:47:19;48.97;;;33.60;;
57697;SDS011;43531;52.152;6.366;2022-12-16T00:47:51;51.13;;;34.20;;
57697;SDS011;43531;52.152;6.366;2022-12-16T00:48:23;55.17;;;33.30;;
57697;SDS011;43531;52.152;6.366;2022-12-16T00:48:55;52.65;;;34.95;;
57697;SDS011;43531;52.152;6.366;2022-12-16T00:49:27;46.60;;;32.30;;
57697;SDS011;43531;52.152;6.366;2022-12-16T00:49:58;53.13;;;35.40;;
57697;SDS011;43531;52.152;6.366;2022-12-16T00:50:30;51.58;;;32.17;;
57697;SDS011;43531;52.152;6.366;2022-12-16T00:51:02;48.13;;;33.20;;
57697;SDS011;43531;52.152;6.366;2022-12-16T00:51:33;47.38;;;33.25;;
57697;SDS011;43531;52.152;6.366;2022-12-16T00:52:05;53.72;;;34.47;;
57697;SDS011;43531;52.152;6.366;2022-12-16T00:52:37;50.65;;;34.75;;
57697;SDS011;43531;52.152;6.366;2022-12-16T00:53:08;50.60;;;33.97;;
57697;SDS011;43531;52.152;6.366;2022-12-16T00:53:40;48.30;;;34.58;;
57697;SDS011;43531;52.152;6.366;2022-12-16T00:54:11;49.75;;;33.60;;
57697;SDS011;43531;52.152;6.366;2022-12-16T00:54:44;49.25;;;33.80;;
57697;SDS011;43531;52.152;6.366;2022-12-16T00:55:16;50.10;;;32.10;;
57697;SDS011;43531;52.152;6.366;2022-12-16T00:55:48;55.70;;;36.30;;
57697;SDS011;43531;52.152;6.366;2022-12-16T00:56:20;51.08;;;35.03;;
57697;SDS011;43531;52.152;6.366;2022-12-16T00:56:59;54.42;;;34.58;;
57697;SDS011;43531;52.152;6.366;2022-12-16T00:57:31;50.28;;;36.00;;
57697;SDS011;43531;52.152;6.366;2022-12-16T00:58:02;50.10;;;34.63;;
57697;SDS011;43531;52.152;6.366;2022-12-16T00:58:34;50.67;;;33.85;;
57697;SDS011;43531;52.152;6.366;2022-12-16T00:59:07;48.65;;;33.97;;
57697;SDS011;43531;52.152;6.366;2022-12-16T00:59:38;50.50;;;35.35;;
57697;SDS011;43531;52.152;6.366;2022-12-16T01:00:11;52.03;;;36.47;;
57697;SDS011;43531;52.152;6.366;2022-12-16T01:00:43;49.97;;;34.97;;
57697;SDS011;43531;52.152;6.366;2022-12-16T01:01:15;53.78;;;34.25;;
57697;SDS011;43531;52.152;6.366;2022-12-16T01:01:46;50.17;;;33.05;;
57697;SDS011;43531;52.152;6.366;2022-12-16T01:02:18;55.55;;;35.30;;
57697;SDS011;43531;52.152;6.366;2022-12-16T01:02:50;47.45;;;33.92;;
57697;SDS011;43531;52.152;6.366;2022-12-16T01:03:24;52.88;;;34.80;;
57697;SDS011;43531;52.152;6.366;2022-12-16T01:03:55;51.83;;;33.90;;
57697;SDS011;43531;52.152;6.366;2022-12-16T01:04:28;53.17;;;34.05;;
57697;SDS011;43531;52.152;6.366;2022-12-16T01:04:59;53.17;;;34.83;;
57697;SDS011;43531;52.152;6.366;2022-12-16T01:05:31;49.88;;;32.55;;
57697;SDS011;43531;52.152;6.366;2022-12-16T01:06:09;51.90;;;34.03;;
57697;SDS011;43531;52.152;6.366;2022-12-16T01:06:42;54.95;;;35.72;;
57697;SDS011;43531;52.152;6.366;2022-12-16T01:07:14;57.45;;;34.83;;
57697;SDS011;43531;52.152;6.366;2022-12-16T01:07:46;52.10;;;32.20;;
57697;SDS011;43531;52.152;6.366;2022-12-16T01:08:18;52.08;;;34.97;;
57697;SDS011;43531;52.152;6.366;2022-12-16T01:08:50;50.97;;;34.03;;
57697;SDS011;43531;52.152;6.366;2022-12-16T01:09:22;54.10;;;35.95;;
57697;SDS011;43531;52.152;6.366;2022-12-16T01:09:53;53.50;;;34.30;;
57697;SDS011;43531;52.152;6.366;2022-12-16T01:10:25;51.60;;;33.28;;
57697;SDS011;43531;52.152;6.366;2022-12-16T01:10:56;47.92;;;31.98;;
57697;SDS011;43531;52.152;6.366;2022-12-16T01:11:28;51.95;;;34.25;;
57697;SDS011;43531;52.152;6.366;2022-12-16T01:12:00;57.65;;;33.30;;
57697;SDS011;43531;52.152;6.366;2022-12-16T01:12:32;59.80;;;34.88;;
57697;SDS011;43531;52.152;6.366;2022-12-16T01:13:04;51.38;;;33.03;;
57697;SDS011;43531;52.152;6.366;2022-12-16T01:13:35;56.58;;;35.13;;
57697;SDS011;43531;52.152;6.366;2022-12-16T01:14:07;52.60;;;35.35;;
57697;SDS011;43531;52.152;6.366;2022-12-16T01:14:39;50.50;;;35.35;;
57697;SDS011;43531;52.152;6.366;2022-12-16T01:15:10;50.00;;;33.17;;
57697;SDS011;43531;52.152;6.366;2022-12-16T01:15:43;55.60;;;35.42;;
57697;SDS011;43531;52.152;6.366;2022-12-16T01:16:14;53.17;;;34.03;;
57697;SDS011;43531;52.152;6.366;2022-12-16T01:16:52;50.47;;;34.95;;
57697;SDS011;43531;52.152;6.366;2022-12-16T01:17:25;51.92;;;34.65;;
57697;SDS011;43531;52.152;6.366;2022-12-16T01:17:57;53.88;;;33.78;;
57697;SDS011;43531;52.152;6.366;2022-12-16T01:18:28;51.30;;;34.78;;
57697;SDS011;43531;52.152;6.366;2022-12-16T01:19:00;52.80;;;33.63;;
57697;SDS011;43531;52.152;6.366;2022-12-16T01:19:31;57.70;;;34.33;;
57697;SDS011;43531;52.152;6.366;2022-12-16T01:20:03;52.95;;;35.00;;
57697;SDS011;43531;52.152;6.366;2022-12-16T01:20:35;51.72;;;34.90;;
57697;SDS011;43531;52.152;6.366;2022-12-16T01:21:07;52.38;;;34.15;;
57697;SDS011;43531;52.152;6.366;2022-12-16T01:21:40;53.28;;;35.00;;
57697;SDS011;43531;52.152;6.366;2022-12-16T01:22:11;50.47;;;33.50;;
57697;SDS011;43531;52.152;6.366;2022-12-16T01:22:45;54.88;;;36.05;;
57697;SDS011;43531;52.152;6.366;2022-12-16T01:23:16;49.30;;;34.50;;
57697;SDS011;43531;52.152;6.366;2022-12-16T01:23:48;50.63;;;33.20;;
57697;SDS011;43531;52.152;6.366;2022-12-16T01:24:20;55.20;;;33.22;;
57697;SDS011;43531;52.152;6.366;2022-12-16T01:24:52;51.63;;;35.75;;
57697;SDS011;43531;52.152;6.366;2022-12-16T01:25:26;51.50;;;33.17;;
57697;SDS011;43531;52.152;6.366;2022-12-16T01:25:58;50.42;;;33.63;;
57697;SDS011;43531;52.152;6.366;2022-12-16T01:26:31;50.20;;;35.65;;
57697;SDS011;43531;52.152;6.366;2022-12-16T01:27:02;47.50;;;33.17;;
57697;SDS011;43531;52.152;6.366;2022-12-16T01:27:34;50.17;;;33.30;;
57697;SDS011;43531;52.152;6.366;2022-12-16T01:28:05;49.03;;;34.13;;
57697;SDS011;43531;52.152;6.366;2022-12-16T01:28:38;54.70;;;34.80;;
57697;SDS011;43531;52.152;6.366;2022-12-16T01:29:10;58.70;;;33.47;;
57697;SDS011;43531;52.152;6.366;2022-12-16T01:29:41;45.40;;;33.33;;
57697;SDS011;43531;52.152;6.366;2022-12-16T01:30:14;49.20;;;32.95;;
57697;SDS011;43531;52.152;6.366;2022-12-16T01:30:46;54.47;;;34.58;;
57697;SDS011;43531;52.152;6.366;2022-12-16T01:31:17;48.42;;;32.30;;
57697;SDS011;43531;52.152;6.366;2022-12-16T01:31:49;47.88;;;31.35;;
57697;SDS011;43531;52.152;6.366;2022-12-16T01:32:22;54.22;;;36.33;;
57697;SDS011;43531;52.152;6.366;2022-12-16T01:32:54;52.70;;;35.88;;
57697;SDS011;43531;52.152;6.366;2022-12-16T01:33:26;46.72;;;33.15;;
57697;SDS011;43531;52.152;6.366;2022-12-16T01:33:59;52.70;;;34.17;;
57697;SDS011;43531;52.152;6.366;2022-12-16T01:34:31;50.13;;;33.97;;
57697;SDS011;43531;52.152;6.366;2022-12-16T01:35:03;55.88;;;33.00;;
57697;SDS011;43531;52.152;6.366;2022-12-16T01:35:57;54.92;;;36.08;;
57697;SDS011;43531;52.152;6.366;2022-12-16T01:36:29;55.55;;;35.08;;
57697;SDS011;43531;52.152;6.366;2022-12-16T01:37:01;51.28;;;34.08;;
57697;SDS011;43531;52.152;6.366;2022-12-16T01:37:32;52.65;;;33.22;;
57697;SDS011;43531;52.152;6.366;2022-12-16T01:38:05;50.65;;;34.85;;
57697;SDS011;43531;52.152;6.366;2022-12-16T01:38:36;51.60;;;33.30;;
57697;SDS011;43531;52.152;6.366;2022-12-16T01:39:08;54.08;;;34.15;;
57697;SDS011;43531;52.152;6.366;2022-12-16T01:39:41;51.28;;;34.35;;
57697;SDS011;43531;52.152;6.366;2022-12-16T01:40:16;52.85;;;35.28;;
57697;SDS011;43531;52.152;6.366;2022-12-16T01:40:49;51.97;;;34.17;;
57697;SDS011;43531;52.152;6.366;2022-12-16T01:41:22;51.70;;;34.08;;
57697;SDS011;43531;52.152;6.366;2022-12-16T01:41:53;53.42;;;33.13;;
57697;SDS011;43531;52.152;6.366;2022-12-16T01:42:25;48.20;;;33.60;;
57697;SDS011;43531;52.152;6.366;2022-12-16T01:43:04;49.70;;;32.50;;
57697;SDS011;43531;52.152;6.366;2022-12-16T01:43:41;51.47;;;33.58;;
57697;SDS011;43531;52.152;6.366;2022-12-16T01:44:14;55.55;;;34.58;;
57697;SDS011;43531;52.152;6.366;2022-12-16T01:44:47;49.70;;;33.50;;
57697;SDS011;43531;52.152;6.366;2022-12-16T01:45:34;58.13;;;35.92;;
57697;SDS011;43531;52.152;6.366;2022-12-16T01:46:49;52.17;;;34.03;;
57697;SDS011;43531;52.152;6.366;2022-12-16T01:47:27;53.08;;;32.70;;
57697;SDS011;43531;52.152;6.366;2022-12-16T01:48:21;54.20;;;34.25;;
57697;SDS011;43531;52.152;6.366;2022-12-16T01:49:08;53.50;;;31.92;;
57697;SDS011;43531;52.152;6.366;2022-12-16T01:49:45;51.40;;;32.25;;
57697;SDS011;43531;52.152;6.366;2022-12-16T01:50:20;50.45;;;32.97;;
57697;SDS011;43531;52.152;6.366;2022-12-16T01:50:52;51.42;;;34.45;;
57697;SDS011;43531;52.152;6.366;2022-12-16T01:51:32;52.78;;;35.03;;
57697;SDS011;43531;52.152;6.366;2022-12-16T01:52:07;48.13;;;33.08;;
57697;SDS011;43531;52.152;6.366;2022-12-16T01:52:42;49.65;;;33.33;;
57697;SDS011;43531;52.152;6.366;2022-12-16T01:53:16;53.78;;;32.78;;
57697;SDS011;43531;52.152;6.366;2022-12-16T01:53:48;56.17;;;34.75;;
57697;SDS011;43531;52.152;6.366;2022-12-16T01:54:35;51.80;;;33.72;;
57697;SDS011;43531;52.152;6.366;2022-12-16T01:55:20;48.05;;;32.20;;
57697;SDS011;43531;52.152;6.366;2022-12-16T01:55:54;50.42;;;33.28;;
57697;SDS011;43531;52.152;6.366;2022-12-16T01:56:26;49.40;;;32.97;;
57697;SDS011;43531;52.152;6.366;2022-12-16T01:56:59;51.03;;;34.63;;
57697;SDS011;43531;52.152;6.366;2022-12-16T01:57:35;62.50;;;36.85;;
57697;SDS011;43531;52.152;6.366;2022-12-16T01:58:17;53.40;;;35.85;;
57697;SDS011;43531;52.152;6.366;2022-12-16T01:58:51;52.65;;;32.22;;
57697;SDS011;43531;52.152;6.366;2022-12-16T01:59:26;50.47;;;34.33;;
57697;SDS011;43531;52.152;6.366;2022-12-16T01:59:59;50.67;;;34.03;;
57697;SDS011;43531;52.152;6.366;2022-12-16T02:00:32;50.80;;;33.70;;
57697;SDS011;43531;52.152;6.366;2022-12-16T02:01:04;46.10;;;32.08;;
57697;SDS011;43531;52.152;6.366;2022-12-16T02:01:37;49.60;;;33.38;;
57697;SDS011;43531;52.152;6.366;2022-12-16T02:02:08;46.35;;;33.13;;
57697;SDS011;43531;52.152;6.366;2022-12-16T02:02:41;54.20;;;34.05;;
57697;SDS011;43531;52.152;6.366;2022-12-16T02:03:14;50.88;;;36.53;;
57697;SDS011;43531;52.152;6.366;2022-12-16T02:03:46;47.20;;;32.78;;
57697;SDS011;43531;52.152;6.366;2022-12-16T02:04:19;53.75;;;34.42;;
57697;SDS011;43531;52.152;6.366;2022-12-16T02:04:51;51.30;;;33.72;;
57697;SDS011;43531;52.152;6.366;2022-12-16T02:05:43;52.40;;;35.97;;
57697;SDS011;43531;52.152;6.366;2022-12-16T02:06:16;50.92;;;34.33;;
57697;SDS011;43531;52.152;6.366;2022-12-16T02:06:47;54.55;;;35.75;;
57697;SDS011;43531;52.152;6.366;2022-12-16T02:07:19;54.03;;;34.65;;
57697;SDS011;43531;52.152;6.366;2022-12-16T02:08:26;51.03;;;34.38;;
57697;SDS011;43531;52.152;6.366;2022-12-16T02:09:01;48.55;;;32.58;;
57697;SDS011;43531;52.152;6.366;2022-12-16T02:09:36;50.90;;;34.90;;
57697;SDS011;43531;52.152;6.366;2022-12-16T02:10:08;57.28;;;34.20;;
57697;SDS011;43531;52.152;6.366;2022-12-16T02:12:27;51.80;;;34.00;;
57697;SDS011;43531;52.152;6.366;2022-12-16T02:13:51;49.83;;;32.15;;
57697;SDS011;43531;52.152;6.366;2022-12-16T02:14:52;45.85;;;33.25;;
57697;SDS011;43531;52.152;6.366;2022-12-16T02:15:33;57.30;;;35.97;;
57697;SDS011;43531;52.152;6.366;2022-12-16T02:16:18;47.42;;;32.67;;
57697;SDS011;43531;52.152;6.366;2022-12-16T02:16:58;51.63;;;34.40;;
57697;SDS011;43531;52.152;6.366;2022-12-16T02:20:04;51.38;;;33.33;;
57697;SDS011;43531;52.152;6.366;2022-12-16T02:20:54;51.35;;;33.60;;
57697;SDS011;43531;52.152;6.366;2022-12-16T02:21:55;52.28;;;31.23;;
57697;SDS011;43531;52.152;6.366;2022-12-16T02:26:25;47.20;;;26.95;;
57697;SDS011;43531;52.152;6.366;2022-12-16T02:28:02;45.75;;;26.38;;
57697;SDS011;43531;52.152;6.366;2022-12-16T02:31:32;35.17;;;23.60;;
57697;SDS011;43531;52.152;6.366;2022-12-16T02:32:19;37.13;;;23.67;;
57697;SDS011;43531;52.152;6.366;2022-12-16T02:35:34;40.25;;;24.33;;
57697;SDS011;43531;52.152;6.366;2022-12-16T02:37:37;44.55;;;24.88;;
57697;SDS011;43531;52.152;6.366;2022-12-16T02:39:35;37.85;;;24.65;;
57697;SDS011;43531;52.152;6.366;2022-12-16T02:40:21;42.05;;;25.63;;
57697;SDS011;43531;52.152;6.366;2022-12-16T02:41:05;43.92;;;26.85;;
57697;SDS011;43531;52.152;6.366;2022-12-16T02:41:42;38.28;;;24.02;;
57697;SDS011;43531;52.152;6.366;2022-12-16T02:43:19;41.55;;;27.13;;
57697;SDS011;43531;52.152;6.366;2022-12-16T02:44:05;45.20;;;25.77;;
57697;SDS011;43531;52.152;6.366;2022-12-16T02:44:41;45.83;;;26.95;;
57697;SDS011;43531;52.152;6.366;2022-12-16T02:45:17;41.92;;;25.13;;
57697;SDS011;43531;52.152;6.366;2022-12-16T02:45:50;42.38;;;25.17;;
57697;SDS011;43531;52.152;6.366;2022-12-16T02:46:24;46.72;;;26.77;;
57697;SDS011;43531;52.152;6.366;2022-12-16T02:46:57;41.42;;;26.80;;
57697;SDS011;43531;52.152;6.366;2022-12-16T02:47:29;52.00;;;25.60;;
57697;SDS011;43531;52.152;6.366;2022-12-16T02:48:01;44.05;;;28.05;;
57697;SDS011;43531;52.152;6.366;2022-12-16T02:48:32;46.72;;;28.58;;
57697;SDS011;43531;52.152;6.366;2022-12-16T02:49:46;43.05;;;28.25;;
57697;SDS011;43531;52.152;6.366;2022-12-16T02:50:20;46.58;;;26.85;;
57697;SDS011;43531;52.152;6.366;2022-12-16T02:50:54;45.30;;;29.60;;
57697;SDS011;43531;52.152;6.366;2022-12-16T02:51:26;41.08;;;26.35;;
57697;SDS011;43531;52.152;6.366;2022-12-16T02:51:58;46.50;;;28.23;;
57697;SDS011;43531;52.152;6.366;2022-12-16T02:52:31;50.90;;;28.05;;
57697;SDS011;43531;52.152;6.366;2022-12-16T02:53:04;39.45;;;25.88;;
57697;SDS011;43531;52.152;6.366;2022-12-16T02:53:36;43.72;;;25.98;;
57697;SDS011;43531;52.152;6.366;2022-12-16T02:54:09;41.58;;;26.60;;
57697;SDS011;43531;52.152;6.366;2022-12-16T02:54:41;41.90;;;27.15;;
57697;SDS011;43531;52.152;6.366;2022-12-16T02:55:14;40.78;;;26.77;;
57697;SDS011;43531;52.152;6.366;2022-12-16T02:57:25;44.35;;;25.52;;
57697;SDS011;43531;52.152;6.366;2022-12-16T02:59:41;37.75;;;24.30;;
57697;SDS011;43531;52.152;6.366;2022-12-16T03:00:02;42.97;;;26.17;;
57697;SDS011;43531;52.152;6.366;2022-12-16T03:00:50;46.33;;;26.23;;
57697;SDS011;43531;52.152;6.366;2022-12-16T03:02:23;39.72;;;24.75;;
57697;SDS011;43531;52.152;6.366;2022-12-16T03:04:05;40.42;;;25.17;;
57697;SDS011;43531;52.152;6.366;2022-12-16T03:04:46;39.67;;;24.88;;
57697;SDS011;43531;52.152;6.366;2022-12-16T03:05:24;40.55;;;24.98;;
57697;SDS011;43531;52.152;6.366;2022-12-16T03:05:58;38.90;;;25.27;;
57697;SDS011;43531;52.152;6.366;2022-12-16T03:06:31;39.75;;;25.30;;
57697;SDS011;43531;52.152;6.366;2022-12-16T03:07:03;43.97;;;24.98;;
57697;SDS011;43531;52.152;6.366;2022-12-16T03:07:38;46.13;;;26.52;;
57697;SDS011;43531;52.152;6.366;2022-12-16T03:08:54;45.83;;;26.80;;
57697;SDS011;43531;52.152;6.366;2022-12-16T03:09:06;46.50;;;23.67;;
57697;SDS011;43531;52.152;6.366;2022-12-16T03:09:39;47.85;;;25.92;;
57697;SDS011;43531;52.152;6.366;2022-12-16T03:10:13;46.72;;;26.90;;
57697;SDS011;43531;52.152;6.366;2022-12-16T03:10:49;46.17;;;27.58;;
57697;SDS011;43531;52.152;6.366;2022-12-16T03:11:26;43.32;;;25.94;;
57697;SDS011;43531;52.152;6.366;2022-12-16T03:11:59;42.95;;;27.13;;
57697;SDS011;43531;52.152;6.366;2022-12-16T03:12:33;41.80;;;27.25;;
57697;SDS011;43531;52.152;6.366;2022-12-16T03:13:08;50.10;;;24.48;;
57697;SDS011;43531;52.152;6.366;2022-12-16T03:13:42;40.42;;;26.65;;
57697;SDS011;43531;52.152;6.366;2022-12-16T03:14:17;43.58;;;27.77;;
57697;SDS011;43531;52.152;6.366;2022-12-16T03:14:52;38.47;;;26.92;;
57697;SDS011;43531;52.152;6.366;2022-12-16T03:15:26;44.92;;;27.65;;
57697;SDS011;43531;52.152;6.366;2022-12-16T03:15:59;45.40;;;28.45;;
57697;SDS011;43531;52.152;6.366;2022-12-16T03:16:31;42.90;;;26.40;;
57697;SDS011;43531;52.152;6.366;2022-12-16T03:17:05;43.42;;;27.23;;
57697;SDS011;43531;52.152;6.366;2022-12-16T03:17:38;47.22;;;27.08;;
57697;SDS011;43531;52.152;6.366;2022-12-16T03:18:10;43.45;;;26.23;;
57697;SDS011;43531;52.152;6.366;2022-12-16T03:18:43;38.38;;;25.98;;
57697;SDS011;43531;52.152;6.366;2022-12-16T03:19:18;44.92;;;26.88;;
57697;SDS011;43531;52.152;6.366;2022-12-16T03:20:00;42.03;;;27.65;;
57697;SDS011;43531;52.152;6.366;2022-12-16T03:20:37;43.22;;;27.38;;
57697;SDS011;43531;52.152;6.366;2022-12-16T03:21:13;39.63;;;23.63;;
57697;SDS011;43531;52.152;6.366;2022-12-16T03:21:58;40.28;;;25.02;;
57697;SDS011;43531;52.152;6.366;2022-12-16T03:22:32;43.10;;;26.90;;
57697;SDS011;43531;52.152;6.366;2022-12-16T03:23:07;53.70;;;28.25;;
57697;SDS011;43531;52.152;6.366;2022-12-16T03:23:52;42.83;;;26.63;;
57697;SDS011;43531;52.152;6.366;2022-12-16T03:24:25;46.53;;;25.33;;
57697;SDS011;43531;52.152;6.366;2022-12-16T03:24:57;49.28;;;27.95;;
57697;SDS011;43531;52.152;6.366;2022-12-16T03:25:29;44.05;;;25.92;;
57697;SDS011;43531;52.152;6.366;2022-12-16T03:26:06;44.13;;;25.25;;
57697;SDS011;43531;52.152;6.366;2022-12-16T03:26:48;45.67;;;27.95;;
57697;SDS011;43531;52.152;6.366;2022-12-16T03:27:46;53.80;;;29.15;;
57697;SDS011;43531;52.152;6.366;2022-12-16T03:29:12;39.20;;;24.98;;
57697;SDS011;43531;52.152;6.366;2022-12-16T03:30:38;39.33;;;24.23;;
57697;SDS011;43531;52.152;6.366;2022-12-16T03:31:18;38.13;;;25.00;;
57697;SDS011;43531;52.152;6.366;2022-12-16T03:31:57;39.78;;;23.50;;
57697;SDS011;43531;52.152;6.366;2022-12-16T03:33:18;44.00;;;27.55;;
57697;SDS011;43531;52.152;6.366;2022-12-16T03:35:18;43.05;;;25.05;;
57697;SDS011;43531;52.152;6.366;2022-12-16T03:35:53;48.67;;;26.50;;
57697;SDS011;43531;52.152;6.366;2022-12-16T03:36:28;41.55;;;26.30;;
57697;SDS011;43531;52.152;6.366;2022-12-16T03:37:05;40.95;;;27.27;;
57697;SDS011;43531;52.152;6.366;2022-12-16T03:37:38;39.08;;;24.00;;
57697;SDS011;43531;52.152;6.366;2022-12-16T03:38:11;43.63;;;26.90;;
57697;SDS011;43531;52.152;6.366;2022-12-16T03:38:44;41.25;;;25.90;;
57697;SDS011;43531;52.152;6.366;2022-12-16T03:39:17;44.78;;;27.92;;
57697;SDS011;43531;52.152;6.366;2022-12-16T03:39:51;46.38;;;25.85;;
57697;SDS011;43531;52.152;6.366;2022-12-16T03:40:24;42.03;;;27.52;;
57697;SDS011;43531;52.152;6.366;2022-12-16T03:40:57;45.17;;;28.58;;
57697;SDS011;43531;52.152;6.366;2022-12-16T03:41:32;43.75;;;26.98;;
57697;SDS011;43531;52.152;6.366;2022-12-16T03:42:04;41.63;;;26.67;;
57697;SDS011;43531;52.152;6.366;2022-12-16T03:42:36;50.90;;;27.55;;
57697;SDS011;43531;52.152;6.366;2022-12-16T03:43:09;42.50;;;26.45;;
57697;SDS011;43531;52.152;6.366;2022-12-16T03:43:42;45.00;;;28.38;;
57697;SDS011;43531;52.152;6.366;2022-12-16T03:44:14;43.55;;;26.40;;
57697;SDS011;43531;52.152;6.366;2022-12-16T03:44:46;41.05;;;27.75;;
57697;SDS011;43531;52.152;6.366;2022-12-16T03:45:21;46.33;;;27.58;;
57697;SDS011;43531;52.152;6.366;2022-12-16T03:45:56;42.50;;;26.45;;
57697;SDS011;43531;52.152;6.366;2022-12-16T03:46:31;44.78;;;26.95;;
57697;SDS011;43531;52.152;6.366;2022-12-16T03:47:03;47.95;;;27.05;;
57697;SDS011;43531;52.152;6.366;2022-12-16T03:47:35;48.90;;;27.83;;
57697;SDS011;43531;52.152;6.366;2022-12-16T03:48:08;42.58;;;27.38;;
57697;SDS011;43531;52.152;6.366;2022-12-16T03:48:44;58.40;;;27.95;;
57697;SDS011;43531;52.152;6.366;2022-12-16T03:49:17;40.33;;;24.85;;